sensor_id;sensor_type;location;lat;lon;timestamp;temperature;humidity
71436;SHT31;59251;51.326;12.370;2023-03-05T00:01:08;3.23;77.64
71436;SHT31;59251;51.326;12.370;2023-03-05T00:03:34;3.07;78.31
71436;SHT31;59251;51.326;12.370;2023-03-05T00:05:59;3.21;78.12
71436;SHT31;59251;51.326;12.370;2023-03-05T00:08:25;3.31;77.67
71436;SHT31;59251;51.326;12.370;2023-03-05T00:10:58;3.09;78.59
71436;SHT31;59251;51.326;12.370;2023-03-05T00:13:24;3.16;78.48
71436;SHT31;59251;51.326;12.370;2023-03-05T00:15:50;3.11;78.39
71436;SHT31;59251;51.326;12.370;2023-03-05T00:18:15;2.92;79.02
71436;SHT31;59251;51.326;12.370;2023-03-05T00:20:41;3.01;78.55
71436;SHT31;59251;51.326;12.370;2023-03-05T00:23:06;3.00;78.23
71436;SHT31;59251;51.326;12.370;2023-03-05T00:25:34;3.06;78.49
71436;SHT31;59251;51.326;12.370;2023-03-05T00:28:00;2.89;78.72
71436;SHT31;59251;51.326;12.370;2023-03-05T00:30:25;3.00;78.41
71436;SHT31;59251;51.326;12.370;2023-03-05T00:32:50;2.95;78.52
71436;SHT31;59251;51.326;12.370;2023-03-05T00:35:16;2.80;78.85
71436;SHT31;59251;51.326;12.370;2023-03-05T00:37:41;2.90;78.52
71436;SHT31;59251;51.326;12.370;2023-03-05T00:40:07;2.99;77.74
71436;SHT31;59251;51.326;12.370;2023-03-05T00:42:33;2.95;77.44
71436;SHT31;59251;51.326;12.370;2023-03-05T00:45:06;2.88;77.33
71436;SHT31;59251;51.326;12.370;2023-03-05T00:47:32;2.95;77.04
71436;SHT31;59251;51.326;12.370;2023-03-05T00:49:57;2.99;76.18
71436;SHT31;59251;51.326;12.370;2023-03-05T00:52:23;2.92;76.25
71436;SHT31;59251;51.326;12.370;2023-03-05T00:54:48;2.79;76.38
71436;SHT31;59251;51.326;12.370;2023-03-05T00:57:13;2.96;76.17
71436;SHT31;59251;51.326;12.370;2023-03-05T00:59:39;2.96;76.15
71436;SHT31;59251;51.326;12.370;2023-03-05T01:02:04;2.99;75.67
71436;SHT31;59251;51.326;12.370;2023-03-05T01:04:30;2.89;75.45
71436;SHT31;59251;51.326;12.370;2023-03-05T01:06:55;2.80;75.74
71436;SHT31;59251;51.326;12.370;2023-03-05T01:09:20;2.76;75.71
71436;SHT31;59251;51.326;12.370;2023-03-05T01:11:46;2.80;76.00
71436;SHT31;59251;51.326;12.370;2023-03-05T01:14:12;2.83;75.97
71436;SHT31;59251;51.326;12.370;2023-03-05T01:16:37;2.76;76.27
71436;SHT31;59251;51.326;12.370;2023-03-05T01:19:03;2.55;77.05
71436;SHT31;59251;51.326;12.370;2023-03-05T01:21:28;2.65;76.92
71436;SHT31;59251;51.326;12.370;2023-03-05T01:23:54;2.56;77.03
71436;SHT31;59251;51.326;12.370;2023-03-05T01:26:19;2.56;77.79
71436;SHT31;59251;51.326;12.370;2023-03-05T01:28:45;2.78;76.60
71436;SHT31;59251;51.326;12.370;2023-03-05T01:31:10;2.55;77.69
71436;SHT31;59251;51.326;12.370;2023-03-05T01:33:36;2.79;76.69
71436;SHT31;59251;51.326;12.370;2023-03-05T01:36:05;2.82;76.65
71436;SHT31;59251;51.326;12.370;2023-03-05T01:38:31;2.76;76.85
71436;SHT31;59251;51.326;12.370;2023-03-05T01:40:56;2.65;77.40
71436;SHT31;59251;51.326;12.370;2023-03-05T01:43:24;2.72;77.47
71436;SHT31;59251;51.326;12.370;2023-03-05T01:48:39;2.65;77.82
71436;SHT31;59251;51.326;12.370;2023-03-05T01:51:06;2.82;77.51
71436;SHT31;59251;51.326;12.370;2023-03-05T01:53:32;2.82;77.65
71436;SHT31;59251;51.326;12.370;2023-03-05T01:55:57;2.83;77.31
71436;SHT31;59251;51.326;12.370;2023-03-05T01:58:24;2.78;77.74
71436;SHT31;59251;51.326;12.370;2023-03-05T02:00:51;2.69;77.89
71436;SHT31;59251;51.326;12.370;2023-03-05T02:03:18;2.68;78.57
71436;SHT31;59251;51.326;12.370;2023-03-05T02:05:44;2.71;78.04
71436;SHT31;59251;51.326;12.370;2023-03-05T02:08:16;2.68;78.68
71436;SHT31;59251;51.326;12.370;2023-03-05T02:10:53;2.85;78.62
71436;SHT31;59251;51.326;12.370;2023-03-05T02:13:25;2.80;79.01
71436;SHT31;59251;51.326;12.370;2023-03-05T02:15:53;2.76;78.88
71436;SHT31;59251;51.326;12.370;2023-03-05T02:18:20;2.73;79.15
71436;SHT31;59251;51.326;12.370;2023-03-05T02:20:51;2.51;79.73
71436;SHT31;59251;51.326;12.370;2023-03-05T02:23:19;2.71;79.24
71436;SHT31;59251;51.326;12.370;2023-03-05T02:25:45;2.71;79.22
71436;SHT31;59251;51.326;12.370;2023-03-05T02:28:18;2.69;79.30
71436;SHT31;59251;51.326;12.370;2023-03-05T02:30:46;2.68;79.56
71436;SHT31;59251;51.326;12.370;2023-03-05T02:33:15;2.59;79.97
71436;SHT31;59251;51.326;12.370;2023-03-05T02:35:41;2.56;79.99
71436;SHT31;59251;51.326;12.370;2023-03-05T02:38:12;2.58;80.36
71436;SHT31;59251;51.326;12.370;2023-03-05T02:40:37;2.63;80.18
71436;SHT31;59251;51.326;12.370;2023-03-05T02:43:03;2.55;80.55
71436;SHT31;59251;51.326;12.370;2023-03-05T02:45:29;2.41;81.14
71436;SHT31;59251;51.326;12.370;2023-03-05T02:47:54;2.44;82.01
71436;SHT31;59251;51.326;12.370;2023-03-05T02:50:20;2.28;82.92
71436;SHT31;59251;51.326;12.370;2023-03-05T02:52:45;2.17;83.38
71436;SHT31;59251;51.326;12.370;2023-03-05T02:55:11;2.38;83.41
71436;SHT31;59251;51.326;12.370;2023-03-05T02:57:36;2.28;84.01
71436;SHT31;59251;51.326;12.370;2023-03-05T03:00:03;2.34;83.93
71436;SHT31;59251;51.326;12.370;2023-03-05T03:02:28;2.01;85.02
71436;SHT31;59251;51.326;12.370;2023-03-05T03:04:54;2.27;84.74
71436;SHT31;59251;51.326;12.370;2023-03-05T03:07:19;2.15;85.02
71436;SHT31;59251;51.326;12.370;2023-03-05T03:09:44;2.31;84.76
71436;SHT31;59251;51.326;12.370;2023-03-05T03:12:10;2.42;83.88
71436;SHT31;59251;51.326;12.370;2023-03-05T03:14:38;2.44;83.86
71436;SHT31;59251;51.326;12.370;2023-03-05T03:17:06;2.13;84.60
71436;SHT31;59251;51.326;12.370;2023-03-05T03:19:31;2.38;84.49
71436;SHT31;59251;51.326;12.370;2023-03-05T03:21:57;2.42;84.15
71436;SHT31;59251;51.326;12.370;2023-03-05T03:24:22;2.14;84.86
71436;SHT31;59251;51.326;12.370;2023-03-05T03:26:47;2.41;83.88
71436;SHT31;59251;51.326;12.370;2023-03-05T03:29:14;2.45;83.69
71436;SHT31;59251;51.326;12.370;2023-03-05T03:31:39;2.38;83.59
71436;SHT31;59251;51.326;12.370;2023-03-05T03:34:06;2.51;83.29
71436;SHT31;59251;51.326;12.370;2023-03-05T03:36:32;2.56;83.11
71436;SHT31;59251;51.326;12.370;2023-03-05T03:38:58;2.51;83.21
71436;SHT31;59251;51.326;12.370;2023-03-05T03:41:23;2.56;82.59
71436;SHT31;59251;51.326;12.370;2023-03-05T03:43:49;2.53;82.60
71436;SHT31;59251;51.326;12.370;2023-03-05T03:46:14;2.46;82.72
71436;SHT31;59251;51.326;12.370;2023-03-05T03:48:39;2.51;82.50
71436;SHT31;59251;51.326;12.370;2023-03-05T03:51:06;2.45;82.93
71436;SHT31;59251;51.326;12.370;2023-03-05T03:53:32;2.45;82.81
71436;SHT31;59251;51.326;12.370;2023-03-05T03:55:58;2.32;82.86
71436;SHT31;59251;51.326;12.370;2023-03-05T03:58:24;2.22;83.17
71436;SHT31;59251;51.326;12.370;2023-03-05T04:00:49;2.24;83.07
71436;SHT31;59251;51.326;12.370;2023-03-05T04:03:14;2.25;82.48
71436;SHT31;59251;51.326;12.370;2023-03-05T04:05:40;2.34;82.03
71436;SHT31;59251;51.326;12.370;2023-03-05T04:08:05;2.31;82.19
71436;SHT31;59251;51.326;12.370;2023-03-05T04:10:36;2.18;81.98
71436;SHT31;59251;51.326;12.370;2023-03-05T04:13:02;2.13;81.95
71436;SHT31;59251;51.326;12.370;2023-03-05T04:15:27;2.01;82.75
71436;SHT31;59251;51.326;12.370;2023-03-05T04:17:52;2.31;81.59
71436;SHT31;59251;51.326;12.370;2023-03-05T04:20:18;2.35;81.66
71436;SHT31;59251;51.326;12.370;2023-03-05T04:22:43;2.24;81.02
71436;SHT31;59251;51.326;12.370;2023-03-05T04:25:09;2.21;81.06
71436;SHT31;59251;51.326;12.370;2023-03-05T04:27:34;2.09;81.39
71436;SHT31;59251;51.326;12.370;2023-03-05T04:30:02;2.31;81.12
71436;SHT31;59251;51.326;12.370;2023-03-05T04:32:28;2.34;80.71
71436;SHT31;59251;51.326;12.370;2023-03-05T04:34:55;2.51;79.87
71436;SHT31;59251;51.326;12.370;2023-03-05T04:37:21;2.61;79.37
71436;SHT31;59251;51.326;12.370;2023-03-05T04:39:46;2.61;79.07
71436;SHT31;59251;51.326;12.370;2023-03-05T04:42:12;2.63;79.25
71436;SHT31;59251;51.326;12.370;2023-03-05T04:44:37;2.61;79.50
71436;SHT31;59251;51.326;12.370;2023-03-05T04:47:03;2.66;79.81
71436;SHT31;59251;51.326;12.370;2023-03-05T04:49:28;2.48;80.57
71436;SHT31;59251;51.326;12.370;2023-03-05T04:51:54;2.24;81.27
71436;SHT31;59251;51.326;12.370;2023-03-05T04:54:22;2.24;81.50
71436;SHT31;59251;51.326;12.370;2023-03-05T04:56:47;2.30;81.42
71436;SHT31;59251;51.326;12.370;2023-03-05T04:59:13;2.41;80.78
71436;SHT31;59251;51.326;12.370;2023-03-05T05:01:38;2.24;81.33
71436;SHT31;59251;51.326;12.370;2023-03-05T05:04:03;2.30;81.54
71436;SHT31;59251;51.326;12.370;2023-03-05T05:06:29;2.61;80.83
71436;SHT31;59251;51.326;12.370;2023-03-05T05:08:54;2.72;80.44
71436;SHT31;59251;51.326;12.370;2023-03-05T05:11:20;2.79;80.28
71436;SHT31;59251;51.326;12.370;2023-03-05T05:13:45;2.79;80.41
71436;SHT31;59251;51.326;12.370;2023-03-05T05:16:10;2.76;80.51
71436;SHT31;59251;51.326;12.370;2023-03-05T05:18:36;2.75;80.83
71436;SHT31;59251;51.326;12.370;2023-03-05T05:21:06;2.83;80.72
71436;SHT31;59251;51.326;12.370;2023-03-05T05:23:31;2.79;81.15
71436;SHT31;59251;51.326;12.370;2023-03-05T05:25:58;2.83;81.27
71436;SHT31;59251;51.326;12.370;2023-03-05T05:28:24;2.85;81.61
71436;SHT31;59251;51.326;12.370;2023-03-05T05:30:49;2.83;81.56
71436;SHT31;59251;51.326;12.370;2023-03-05T05:33:16;2.80;81.77
71436;SHT31;59251;51.326;12.370;2023-03-05T05:35:41;2.83;81.55
71436;SHT31;59251;51.326;12.370;2023-03-05T05:38:06;2.85;81.71
71436;SHT31;59251;51.326;12.370;2023-03-05T05:40:32;2.92;81.64
71436;SHT31;59251;51.326;12.370;2023-03-05T05:42:57;2.78;82.36
71436;SHT31;59251;51.326;12.370;2023-03-05T05:45:22;2.56;82.45
71436;SHT31;59251;51.326;12.370;2023-03-05T05:47:48;2.46;83.12
71436;SHT31;59251;51.326;12.370;2023-03-05T05:50:13;2.75;82.04
71436;SHT31;59251;51.326;12.370;2023-03-05T05:52:39;2.76;81.64
71436;SHT31;59251;51.326;12.370;2023-03-05T05:55:05;2.86;81.32
71436;SHT31;59251;51.326;12.370;2023-03-05T05:57:30;2.66;82.04
71436;SHT31;59251;51.326;12.370;2023-03-05T05:59:56;2.45;83.03
71436;SHT31;59251;51.326;12.370;2023-03-05T06:02:21;2.56;82.82
71436;SHT31;59251;51.326;12.370;2023-03-05T06:04:46;2.46;82.93
71436;SHT31;59251;51.326;12.370;2023-03-05T06:07:11;2.76;82.51
71436;SHT31;59251;51.326;12.370;2023-03-05T06:09:37;2.85;82.53
71436;SHT31;59251;51.326;12.370;2023-03-05T06:12:02;2.76;83.44
71436;SHT31;59251;51.326;12.370;2023-03-05T06:14:28;2.66;84.37
71436;SHT31;59251;51.326;12.370;2023-03-05T06:16:53;2.55;85.30
71436;SHT31;59251;51.326;12.370;2023-03-05T06:19:19;2.65;85.59
71436;SHT31;59251;51.326;12.370;2023-03-05T06:21:44;2.51;85.60
71436;SHT31;59251;51.326;12.370;2023-03-05T06:24:10;2.51;85.77
71436;SHT31;59251;51.326;12.370;2023-03-05T06:26:36;2.51;85.59
71436;SHT31;59251;51.326;12.370;2023-03-05T06:29:02;2.38;86.28
71436;SHT31;59251;51.326;12.370;2023-03-05T06:31:28;2.45;86.41
71436;SHT31;59251;51.326;12.370;2023-03-05T06:33:56;2.31;88.14
71436;SHT31;59251;51.326;12.370;2023-03-05T06:36:23;2.59;87.87
71436;SHT31;59251;51.326;12.370;2023-03-05T06:38:50;2.76;88.01
71436;SHT31;59251;51.326;12.370;2023-03-05T06:41:19;2.58;88.11
71436;SHT31;59251;51.326;12.370;2023-03-05T06:43:45;2.58;88.71
71436;SHT31;59251;51.326;12.370;2023-03-05T06:46:20;2.71;88.24
71436;SHT31;59251;51.326;12.370;2023-03-05T06:48:45;2.48;89.25
71436;SHT31;59251;51.326;12.370;2023-03-05T06:51:16;2.58;88.33
71436;SHT31;59251;51.326;12.370;2023-03-05T06:53:43;2.69;87.29
71436;SHT31;59251;51.326;12.370;2023-03-05T06:56:08;2.76;87.56
71436;SHT31;59251;51.326;12.370;2023-03-05T06:58:34;2.68;87.15
71436;SHT31;59251;51.326;12.370;2023-03-05T07:00:59;2.82;86.81
71436;SHT31;59251;51.326;12.370;2023-03-05T07:03:25;2.86;86.12
71436;SHT31;59251;51.326;12.370;2023-03-05T07:05:50;2.86;86.17
71436;SHT31;59251;51.326;12.370;2023-03-05T07:08:16;2.80;86.85
71436;SHT31;59251;51.326;12.370;2023-03-05T07:10:42;2.88;86.97
71436;SHT31;59251;51.326;12.370;2023-03-05T07:13:08;2.90;87.34
71436;SHT31;59251;51.326;12.370;2023-03-05T07:15:37;3.03;86.31
71436;SHT31;59251;51.326;12.370;2023-03-05T07:18:03;3.16;85.99
71436;SHT31;59251;51.326;12.370;2023-03-05T07:20:28;3.11;86.15
71436;SHT31;59251;51.326;12.370;2023-03-05T07:22:54;3.07;85.57
71436;SHT31;59251;51.326;12.370;2023-03-05T07:25:19;3.16;85.22
71436;SHT31;59251;51.326;12.370;2023-03-05T07:27:46;2.89;86.19
71436;SHT31;59251;51.326;12.370;2023-03-05T07:30:13;3.01;85.88
71436;SHT31;59251;51.326;12.370;2023-03-05T07:32:38;2.88;86.46
71436;SHT31;59251;51.326;12.370;2023-03-05T07:35:04;2.69;87.53
71436;SHT31;59251;51.326;12.370;2023-03-05T07:37:30;2.76;88.42
71436;SHT31;59251;51.326;12.370;2023-03-05T07:39:55;2.79;86.76
71436;SHT31;59251;51.326;12.370;2023-03-05T07:42:21;2.72;87.37
71436;SHT31;59251;51.326;12.370;2023-03-05T07:44:46;2.96;86.91
71436;SHT31;59251;51.326;12.370;2023-03-05T07:47:11;2.85;87.10
71436;SHT31;59251;51.326;12.370;2023-03-05T07:49:37;3.06;86.69
71436;SHT31;59251;51.326;12.370;2023-03-05T07:52:06;2.96;86.47
71436;SHT31;59251;51.326;12.370;2023-03-05T07:54:31;2.82;87.77
71436;SHT31;59251;51.326;12.370;2023-03-05T07:57:04;3.14;86.76
71436;SHT31;59251;51.326;12.370;2023-03-05T07:59:30;3.32;85.80
71436;SHT31;59251;51.326;12.370;2023-03-05T08:01:56;3.37;86.44
71436;SHT31;59251;51.326;12.370;2023-03-05T08:04:22;3.31;86.14
71436;SHT31;59251;51.326;12.370;2023-03-05T08:06:47;3.42;85.66
71436;SHT31;59251;51.326;12.370;2023-03-05T08:09:14;3.52;85.74
71436;SHT31;59251;51.326;12.370;2023-03-05T08:11:40;3.39;86.02
71436;SHT31;59251;51.326;12.370;2023-03-05T08:14:05;3.45;86.18
71436;SHT31;59251;51.326;12.370;2023-03-05T08:16:31;3.72;84.82
71436;SHT31;59251;51.326;12.370;2023-03-05T08:18:57;3.89;84.91
71436;SHT31;59251;51.326;12.370;2023-03-05T08:21:34;4.05;84.17
71436;SHT31;59251;51.326;12.370;2023-03-05T08:24:01;4.00;84.21
71436;SHT31;59251;51.326;12.370;2023-03-05T08:26:29;4.10;83.26
71436;SHT31;59251;51.326;12.370;2023-03-05T08:28:56;3.96;83.23
71436;SHT31;59251;51.326;12.370;2023-03-05T08:31:24;3.99;83.23
71436;SHT31;59251;51.326;12.370;2023-03-05T08:33:51;4.21;83.13
71436;SHT31;59251;51.326;12.370;2023-03-05T08:36:17;4.09;83.37
71436;SHT31;59251;51.326;12.370;2023-03-05T08:38:42;4.43;83.33
71436;SHT31;59251;51.326;12.370;2023-03-05T08:41:09;4.45;82.32
71436;SHT31;59251;51.326;12.370;2023-03-05T08:43:35;4.48;82.40
71436;SHT31;59251;51.326;12.370;2023-03-05T08:46:00;4.29;81.93
71436;SHT31;59251;51.326;12.370;2023-03-05T08:48:26;4.45;82.14
71436;SHT31;59251;51.326;12.370;2023-03-05T08:50:51;4.36;81.67
71436;SHT31;59251;51.326;12.370;2023-03-05T08:53:17;4.51;81.36
71436;SHT31;59251;51.326;12.370;2023-03-05T08:55:43;4.79;80.68
71436;SHT31;59251;51.326;12.370;2023-03-05T08:58:08;4.83;80.45
71436;SHT31;59251;51.326;12.370;2023-03-05T09:00:33;4.51;81.09
71436;SHT31;59251;51.326;12.370;2023-03-05T09:02:59;4.71;80.88
71436;SHT31;59251;51.326;12.370;2023-03-05T09:05:24;4.45;81.71
71436;SHT31;59251;51.326;12.370;2023-03-05T09:07:49;4.40;80.47
71436;SHT31;59251;51.326;12.370;2023-03-05T09:10:15;4.34;79.54
71436;SHT31;59251;51.326;12.370;2023-03-05T09:12:42;4.74;79.74
71436;SHT31;59251;51.326;12.370;2023-03-05T09:15:09;4.51;80.70
71436;SHT31;59251;51.326;12.370;2023-03-05T09:17:36;4.54;78.66
71436;SHT31;59251;51.326;12.370;2023-03-05T09:20:04;4.45;79.70
71436;SHT31;59251;51.326;12.370;2023-03-05T09:22:30;4.50;79.55
71436;SHT31;59251;51.326;12.370;2023-03-05T09:24:55;4.38;80.16
71436;SHT31;59251;51.326;12.370;2023-03-05T09:27:21;4.67;79.04
71436;SHT31;59251;51.326;12.370;2023-03-05T09:29:46;4.55;79.28
71436;SHT31;59251;51.326;12.370;2023-03-05T09:32:12;4.67;79.15
71436;SHT31;59251;51.326;12.370;2023-03-05T09:34:37;4.68;79.77
71436;SHT31;59251;51.326;12.370;2023-03-05T09:37:03;4.57;80.44
71436;SHT31;59251;51.326;12.370;2023-03-05T09:39:28;4.71;80.59
71436;SHT31;59251;51.326;12.370;2023-03-05T09:44:29;4.34;82.56
71436;SHT31;59251;51.326;12.370;2023-03-05T09:47:12;4.41;83.77
71436;SHT31;59251;51.326;12.370;2023-03-05T09:55:38;3.89;86.05
71436;SHT31;59251;51.326;12.370;2023-03-05T09:58:18;4.24;84.80
71436;SHT31;59251;51.326;12.370;2023-03-05T10:00:54;4.27;83.90
71436;SHT31;59251;51.326;12.370;2023-03-05T10:06:28;4.18;85.11
71436;SHT31;59251;51.326;12.370;2023-03-05T10:08:55;3.93;85.72
71436;SHT31;59251;51.326;12.370;2023-03-05T10:14:28;3.48;87.27
71436;SHT31;59251;51.326;12.370;2023-03-05T10:22:21;4.09;86.65
71436;SHT31;59251;51.326;12.370;2023-03-05T10:27:50;4.24;86.31
71436;SHT31;59251;51.326;12.370;2023-03-05T10:30:28;4.68;85.24
71436;SHT31;59251;51.326;12.370;2023-03-05T10:38:34;4.62;84.72
71436;SHT31;59251;51.326;12.370;2023-03-05T10:46:36;4.23;85.70
71436;SHT31;59251;51.326;12.370;2023-03-05T10:49:13;3.96;86.39
71436;SHT31;59251;51.326;12.370;2023-03-05T10:51:46;3.87;86.66
71436;SHT31;59251;51.326;12.370;2023-03-05T10:54:26;3.72;86.88
71436;SHT31;59251;51.326;12.370;2023-03-05T10:59:30;4.47;84.71
71436;SHT31;59251;51.326;12.370;2023-03-05T11:02:06;4.79;84.80
71436;SHT31;59251;51.326;12.370;2023-03-05T11:04:37;5.05;83.43
71436;SHT31;59251;51.326;12.370;2023-03-05T11:07:31;5.29;82.99
71436;SHT31;59251;51.326;12.370;2023-03-05T11:12:27;5.31;82.23
71436;SHT31;59251;51.326;12.370;2023-03-05T11:17:44;5.27;82.28
71436;SHT31;59251;51.326;12.370;2023-03-05T11:23:15;5.10;82.31
71436;SHT31;59251;51.326;12.370;2023-03-05T11:28:56;5.06;80.41
71436;SHT31;59251;51.326;12.370;2023-03-05T11:31:24;4.95;81.07
71436;SHT31;59251;51.326;12.370;2023-03-05T11:36:33;4.93;81.89
71436;SHT31;59251;51.326;12.370;2023-03-05T11:44:02;5.46;79.81
71436;SHT31;59251;51.326;12.370;2023-03-05T11:46:29;5.54;79.48
71436;SHT31;59251;51.326;12.370;2023-03-05T11:48:59;5.95;78.79
71436;SHT31;59251;51.326;12.370;2023-03-05T11:51:30;6.05;78.26
71436;SHT31;59251;51.326;12.370;2023-03-05T11:54:02;5.97;78.14
71436;SHT31;59251;51.326;12.370;2023-03-05T11:56:33;5.65;78.70
71436;SHT31;59251;51.326;12.370;2023-03-05T11:59:26;5.62;78.52
71436;SHT31;59251;51.326;12.370;2023-03-05T12:01:54;5.64;79.83
71436;SHT31;59251;51.326;12.370;2023-03-05T12:04:21;5.43;80.08
71436;SHT31;59251;51.326;12.370;2023-03-05T12:06:59;5.71;79.15
71436;SHT31;59251;51.326;12.370;2023-03-05T12:09:39;5.78;77.94
71436;SHT31;59251;51.326;12.370;2023-03-05T12:12:22;5.98;77.95
71436;SHT31;59251;51.326;12.370;2023-03-05T12:18:13;5.75;77.84
71436;SHT31;59251;51.326;12.370;2023-03-05T12:23:18;5.48;78.33
71436;SHT31;59251;51.326;12.370;2023-03-05T12:25:53;5.37;78.69
71436;SHT31;59251;51.326;12.370;2023-03-05T12:30:59;5.10;78.73
71436;SHT31;59251;51.326;12.370;2023-03-05T12:33:37;5.02;79.68
71436;SHT31;59251;51.326;12.370;2023-03-05T12:38:53;4.75;80.78
71436;SHT31;59251;51.326;12.370;2023-03-05T12:46:42;3.69;84.52
71436;SHT31;59251;51.326;12.370;2023-03-05T12:51:43;3.42;88.81
71436;SHT31;59251;51.326;12.370;2023-03-05T12:54:31;3.68;89.27
71436;SHT31;59251;51.326;12.370;2023-03-05T12:57:05;3.68;89.22
71436;SHT31;59251;51.326;12.370;2023-03-05T12:59:42;3.81;88.84
71436;SHT31;59251;51.326;12.370;2023-03-05T13:02:19;3.54;86.70
71436;SHT31;59251;51.326;12.370;2023-03-05T13:04:45;3.47;87.69
71436;SHT31;59251;51.326;12.370;2023-03-05T13:07:16;3.75;83.87
71436;SHT31;59251;51.326;12.370;2023-03-05T13:09:51;4.00;82.97
71436;SHT31;59251;51.326;12.370;2023-03-05T13:12:18;4.13;82.10
71436;SHT31;59251;51.326;12.370;2023-03-05T13:14:45;4.62;80.32
71436;SHT31;59251;51.326;12.370;2023-03-05T13:19:55;6.13;75.99
71436;SHT31;59251;51.326;12.370;2023-03-05T13:22:20;6.50;75.48
71436;SHT31;59251;51.326;12.370;2023-03-05T13:25:33;6.38;76.19
71436;SHT31;59251;51.326;12.370;2023-03-05T13:27:34;5.89;76.49
71436;SHT31;59251;51.326;12.370;2023-03-05T13:30:00;5.48;77.71
71436;SHT31;59251;51.326;12.370;2023-03-05T13:32:27;5.74;78.88
71436;SHT31;59251;51.326;12.370;2023-03-05T13:34:57;5.51;79.74
71436;SHT31;59251;51.326;12.370;2023-03-05T13:37:25;5.10;80.72
71436;SHT31;59251;51.326;12.370;2023-03-05T13:39:55;4.88;83.04
71436;SHT31;59251;51.326;12.370;2023-03-05T13:42:27;5.18;81.89
71436;SHT31;59251;51.326;12.370;2023-03-05T13:47:20;5.06;82.20
71436;SHT31;59251;51.326;12.370;2023-03-05T13:49:54;5.58;80.41
71436;SHT31;59251;51.326;12.370;2023-03-05T13:52:24;6.32;77.55
71436;SHT31;59251;51.326;12.370;2023-03-05T13:54:50;6.23;77.35
71436;SHT31;59251;51.326;12.370;2023-03-05T14:00:33;5.88;74.13
71436;SHT31;59251;51.326;12.370;2023-03-05T14:05:34;5.43;72.53
71436;SHT31;59251;51.326;12.370;2023-03-05T14:08:00;5.92;69.17
71436;SHT31;59251;51.326;12.370;2023-03-05T14:12:51;5.72;69.98
71436;SHT31;59251;51.326;12.370;2023-03-05T14:15:25;5.58;70.59
71436;SHT31;59251;51.326;12.370;2023-03-05T14:18:06;5.70;70.17
71436;SHT31;59251;51.326;12.370;2023-03-05T14:20:32;5.51;70.31
71436;SHT31;59251;51.326;12.370;2023-03-05T14:22:59;5.74;70.10
71436;SHT31;59251;51.326;12.370;2023-03-05T14:25:36;5.46;71.41
71436;SHT31;59251;51.326;12.370;2023-03-05T14:28:23;5.74;71.14
71436;SHT31;59251;51.326;12.370;2023-03-05T14:30:52;5.79;69.56
71436;SHT31;59251;51.326;12.370;2023-03-05T14:33:22;5.82;70.01
71436;SHT31;59251;51.326;12.370;2023-03-05T14:35:50;6.01;70.21
71436;SHT31;59251;51.326;12.370;2023-03-05T14:38:23;5.99;70.42
71436;SHT31;59251;51.326;12.370;2023-03-05T14:40:49;5.88;71.44
71436;SHT31;59251;51.326;12.370;2023-03-05T14:43:15;6.16;69.67
71436;SHT31;59251;51.326;12.370;2023-03-05T14:45:42;6.19;70.01
71436;SHT31;59251;51.326;12.370;2023-03-05T14:48:10;6.32;70.43
71436;SHT31;59251;51.326;12.370;2023-03-05T14:50:41;6.22;70.73
71436;SHT31;59251;51.326;12.370;2023-03-05T14:53:35;5.52;71.68
71436;SHT31;59251;51.326;12.370;2023-03-05T14:56:02;5.77;71.67
71436;SHT31;59251;51.326;12.370;2023-03-05T14:58:30;5.50;72.86
71436;SHT31;59251;51.326;12.370;2023-03-05T15:00:57;5.34;73.27
71436;SHT31;59251;51.326;12.370;2023-03-05T15:03:23;5.15;73.90
71436;SHT31;59251;51.326;12.370;2023-03-05T15:05:52;5.34;71.61
71436;SHT31;59251;51.326;12.370;2023-03-05T15:08:24;5.44;72.03
71436;SHT31;59251;51.326;12.370;2023-03-05T15:10:51;5.20;71.80
71436;SHT31;59251;51.326;12.370;2023-03-05T15:13:16;5.18;71.87
71436;SHT31;59251;51.326;12.370;2023-03-05T15:15:42;5.19;72.41
71436;SHT31;59251;51.326;12.370;2023-03-05T15:18:12;5.37;71.88
71436;SHT31;59251;51.326;12.370;2023-03-05T15:20:37;5.34;70.53
71436;SHT31;59251;51.326;12.370;2023-03-05T15:23:04;5.40;70.67
71436;SHT31;59251;51.326;12.370;2023-03-05T15:25:29;5.27;71.43
71436;SHT31;59251;51.326;12.370;2023-03-05T15:27:55;5.12;71.34
71436;SHT31;59251;51.326;12.370;2023-03-05T15:30:27;5.22;71.36
71436;SHT31;59251;51.326;12.370;2023-03-05T15:32:53;5.09;71.75
71436;SHT31;59251;51.326;12.370;2023-03-05T15:35:19;5.15;71.50
71436;SHT31;59251;51.326;12.370;2023-03-05T15:37:45;4.95;72.83
71436;SHT31;59251;51.326;12.370;2023-03-05T15:40:11;5.05;72.39
71436;SHT31;59251;51.326;12.370;2023-03-05T15:42:37;5.30;71.44
71436;SHT31;59251;51.326;12.370;2023-03-05T15:45:03;5.33;71.53
71436;SHT31;59251;51.326;12.370;2023-03-05T15:47:28;5.13;72.14
71436;SHT31;59251;51.326;12.370;2023-03-05T15:49:53;4.83;73.75
71436;SHT31;59251;51.326;12.370;2023-03-05T15:52:19;5.05;72.90
71436;SHT31;59251;51.326;12.370;2023-03-05T15:54:44;5.00;72.59
71436;SHT31;59251;51.326;12.370;2023-03-05T15:57:10;4.72;73.71
71436;SHT31;59251;51.326;12.370;2023-03-05T15:59:36;5.00;72.62
71436;SHT31;59251;51.326;12.370;2023-03-05T16:02:02;4.83;73.11
71436;SHT31;59251;51.326;12.370;2023-03-05T16:04:28;4.71;73.63
71436;SHT31;59251;51.326;12.370;2023-03-05T16:06:54;4.69;73.57
71436;SHT31;59251;51.326;12.370;2023-03-05T16:09:20;4.96;73.21
71436;SHT31;59251;51.326;12.370;2023-03-05T16:11:47;4.78;73.65
71436;SHT31;59251;51.326;12.370;2023-03-05T16:14:18;4.96;74.09
71436;SHT31;59251;51.326;12.370;2023-03-05T16:16:45;5.05;73.53
71436;SHT31;59251;51.326;12.370;2023-03-05T16:19:11;4.85;73.84
71436;SHT31;59251;51.326;12.370;2023-03-05T16:21:38;4.78;74.28
71436;SHT31;59251;51.326;12.370;2023-03-05T16:24:03;4.57;74.86
71436;SHT31;59251;51.326;12.370;2023-03-05T16:26:29;4.72;75.59
71436;SHT31;59251;51.326;12.370;2023-03-05T16:28:54;4.88;73.90
71436;SHT31;59251;51.326;12.370;2023-03-05T16:31:20;4.68;75.10
71436;SHT31;59251;51.326;12.370;2023-03-05T16:33:46;4.82;74.60
71436;SHT31;59251;51.326;12.370;2023-03-05T16:38:42;4.57;75.81
71436;SHT31;59251;51.326;12.370;2023-03-05T16:41:07;4.48;76.06
71436;SHT31;59251;51.326;12.370;2023-03-05T16:43:33;4.53;75.77
71436;SHT31;59251;51.326;12.370;2023-03-05T16:45:58;4.81;74.81
71436;SHT31;59251;51.326;12.370;2023-03-05T16:48:23;4.47;75.81
71436;SHT31;59251;51.326;12.370;2023-03-05T16:50:49;4.45;76.17
71436;SHT31;59251;51.326;12.370;2023-03-05T16:53:14;4.43;76.11
71436;SHT31;59251;51.326;12.370;2023-03-05T16:55:39;4.61;75.31
71436;SHT31;59251;51.326;12.370;2023-03-05T16:58:05;4.55;75.72
71436;SHT31;59251;51.326;12.370;2023-03-05T17:00:30;4.26;77.08
71436;SHT31;59251;51.326;12.370;2023-03-05T17:02:56;4.24;77.00
71436;SHT31;59251;51.326;12.370;2023-03-05T17:05:21;4.26;77.18